Time;durP1;ratioP1;P1;durP2;ratioP2;P2;SDS_P1;SDS_P2;PMS_P1;PMS_P2;Temp;Humidity;BMP_temperature;BMP_pressure;BME280_temperature;BME280_humidity;BME280_pressure;Samples;Min_cycle;Max_cycle;Signal;HPM_P1;HPM_P2
2022/08/01 00:01:22;;;;;;;;;;;;;;;16.41;100.00;100782.63;5024506;28;20992;-76
2022/08/01 00:03:48;;;;;;;;;;;;;;;16.37;100.00;100778.69;5024837;28;19982;-75
2022/08/01 00:06:13;;;;;;;;;;;;;;;16.38;100.00;100775.78;5034577;28;20051;-76
2022/08/01 00:08:38;;;;;;;;;;;;;;;16.42;100.00;100784.31;5040522;28;19970;-75
2022/08/01 00:11:04;;;;;;;;;;;;;;;16.50;100.00;100794.06;5024685;28;20385;-76
2022/08/01 00:13:29;;;;;;;;;;;;;;;16.52;100.00;100792.84;5040315;28;19917;-76
2022/08/01 00:15:54;;;;;;;;;;;;;;;16.60;100.00;100797.22;5024233;28;19920;-75
2022/08/01 00:18:20;;;;;;;;;;;;;;;16.61;100.00;100797.03;5027076;28;19913;-76
2022/08/01 00:20:45;;;;;;;;;;;;;;;16.63;100.00;100804.94;5028161;28;19974;-76
2022/08/01 00:23:10;;;;;;;;;;;;;;;16.66;100.00;100804.50;5028401;28;19928;-76
2022/08/01 00:25:35;;;;;;;;;;;;;;;16.65;100.00;100806.38;5028564;28;19919;-76
2022/08/01 00:28:01;;;;;;;;;;;;;;;16.71;100.00;100815.53;5027584;28;20295;-76
2022/08/01 00:30:26;;;;;;;;;;;;;;;16.72;100.00;100806.41;5028283;28;19912;-74
2022/08/01 00:32:52;;;;;;;;;;;;;;;16.66;100.00;100805.34;5026805;28;19923;-75
2022/08/01 00:35:17;;;;;;;;;;;;;;;16.70;100.00;100813.88;5010722;28;19909;-76
2022/08/01 00:37:43;;;;;;;;;;;;;;;16.78;100.00;100804.75;5028362;28;19913;-76
2022/08/01 00:40:09;;;;;;;;;;;;;;;16.85;100.00;100809.19;5040541;28;19966;-76
2022/08/01 00:42:34;;;;;;;;;;;;;;;16.89;100.00;100817.69;5043616;28;19917;-76
2022/08/01 00:45:00;;;;;;;;;;;;;;;16.87;100.00;100819.78;5027196;28;20022;-75
2022/08/01 00:47:25;;;;;;;;;;;;;;;16.92;100.00;100816.47;5037267;28;19920;-76
2022/08/01 00:49:50;;;;;;;;;;;;;;;16.95;100.00;100821.44;5026658;28;19936;-76
2022/08/01 00:52:16;;;;;;;;;;;;;;;16.91;100.00;100820.22;5037467;28;20015;-76
2022/08/01 00:54:42;;;;;;;;;;;;;;;16.95;100.00;100826.84;5028355;28;19913;-74
2022/08/01 00:57:07;;;;;;;;;;;;;;;16.96;100.00;100828.53;5026960;28;19967;-77
2022/08/01 00:59:34;;;;;;;;;;;;;;;17.01;100.00;100820.66;5043354;28;19909;-76
2022/08/01 01:01:59;;;;;;;;;;;;;;;16.98;100.00;100827.28;5043612;28;20362;-76
2022/08/01 01:04:24;;;;;;;;;;;;;;;17.01;100.00;100823.34;5010295;28;19924;-76
2022/08/01 01:06:59;;;;;;;;;;;;;;;17.04;100.00;100826.47;5026739;28;19977;-76
2022/08/01 01:09:43;;;;;;;;;;;;;;;16.99;100.00;100828.94;5026410;28;19974;-77
2022/08/01 01:12:29;;;;;;;;;;;;;;;16.99;100.00;100828.09;5034579;28;20408;-76
2022/08/01 01:15:09;;;;;;;;;;;;;;;17.07;100.00;100841.41;5035555;28;20007;-76
2022/08/01 01:17:57;;;;;;;;;;;;;;;17.07;100.00;100834.16;5023294;28;19936;-76
2022/08/01 01:20:30;;;;;;;;;;;;;;;17.07;100.00;100847.66;5025300;28;19917;-75
2022/08/01 01:22:59;;;;;;;;;;;;;;;17.07;100.00;100847.66;5028083;28;20246;-77
2022/08/01 01:25:36;;;;;;;;;;;;;;;17.03;100.00;100853.63;5020934;28;20171;-76
2022/08/01 01:28:11;;;;;;;;;;;;;;;17.05;100.00;100863.19;5026409;28;20700;-76
2022/08/01 01:30:38;;;;;;;;;;;;;;;17.03;100.00;100857.16;5023081;28;19924;-77
2022/08/01 01:33:05;;;;;;;;;;;;;;;16.96;100.00;100850.09;5043031;28;20356;-76
2022/08/01 01:35:32;;;;;;;;;;;;;;;16.97;100.00;100857.13;5042978;28;19913;-76
2022/08/01 01:38:00;;;;;;;;;;;;;;;17.02;100.00;100860.06;5026646;28;19970;-76
2022/08/01 01:40:25;;;;;;;;;;;;;;;16.97;100.00;100867.94;5027097;28;19913;-75
2022/08/01 01:42:51;;;;;;;;;;;;;;;16.90;100.00;100864.38;5027806;28;20035;-76
2022/08/01 01:45:17;;;;;;;;;;;;;;;16.85;100.00;100868.50;5026040;28;19917;-76
2022/08/01 01:47:44;;;;;;;;;;;;;;;16.91;100.00;100871.44;5025904;28;19913;-77
2022/08/01 01:50:11;;;;;;;;;;;;;;;16.86;100.00;100870.19;5023853;28;19917;-76
2022/08/01 01:52:38;;;;;;;;;;;;;;;16.84;100.00;100877.63;5027463;28;19935;-75
2022/08/01 01:55:05;;;;;;;;;;;;;;;16.81;100.00;100880.75;5042919;28;19913;-75
2022/08/01 01:57:32;;;;;;;;;;;;;;;16.81;100.00;100879.88;5026497;28;20247;-76
2022/08/01 01:59:59;;;;;;;;;;;;;;;16.82;100.00;100882.38;5025667;28;19917;-76
2022/08/01 02:02:25;;;;;;;;;;;;;;;16.87;100.00;100885.31;5009715;28;19917;-76
2022/08/01 02:04:52;;;;;;;;;;;;;;;16.78;100.00;100881.09;5027623;28;19992;-76
2022/08/01 02:07:20;;;;;;;;;;;;;;;16.86;100.00;100882.84;5036637;28;19913;-77
2022/08/01 02:09:46;;;;;;;;;;;;;;;16.90;100.00;100896.72;5027011;28;19920;-76
2022/08/01 02:12:12;;;;;;;;;;;;;;;16.86;100.00;100886.34;5009945;28;19913;-74
2022/08/01 02:14:39;;;;;;;;;;;;;;;16.86;100.00;100894.44;5026586;28;19913;-77
2022/08/01 02:17:05;;;;;;;;;;;;;;;16.81;100.00;100891.53;5026994;28;19909;-76
2022/08/01 02:19:32;;;;;;;;;;;;;;;16.81;100.00;100896.06;5025770;28;19924;-76
2022/08/01 02:22:00;;;;;;;;;;;;;;;16.82;100.00;100903.97;5042267;28;19952;-75
2022/08/01 02:24:25;;;;;;;;;;;;;;;16.82;100.00;100903.97;5025657;28;19924;-77
2022/08/01 02:26:54;;;;;;;;;;;;;;;16.81;100.00;100915.78;5042497;28;19928;-76
2022/08/01 02:29:25;;;;;;;;;;;;;;;16.84;100.00;100919.94;5025499;28;19927;-77
2022/08/01 02:31:54;;;;;;;;;;;;;;;16.84;100.00;100919.94;5025385;28;20348;-76
2022/08/01 02:34:19;;;;;;;;;;;;;;;16.78;100.00;100929.63;5035858;28;19920;-77
2022/08/01 02:36:46;;;;;;;;;;;;;;;16.77;100.00;100930.66;5041779;28;19913;-76
2022/08/01 02:39:13;;;;;;;;;;;;;;;16.72;100.00;100919.66;5026520;28;20244;-75
2022/08/01 02:41:42;;;;;;;;;;;;;;;16.69;100.00;100925.41;5025281;28;19913;-77
2022/08/01 02:44:08;;;;;;;;;;;;;;;16.71;100.00;100915.25;5026328;28;19916;-75
2022/08/01 02:46:38;;;;;;;;;;;;;;;16.73;100.00;100918.59;5025595;28;20056;-76
2022/08/01 02:49:06;;;;;;;;;;;;;;;16.66;100.00;100923.13;5023426;28;19936;-77
2022/08/01 02:51:32;;;;;;;;;;;;;;;16.66;100.00;100920.44;5026577;28;19919;-74
2022/08/01 02:53:59;;;;;;;;;;;;;;;16.64;100.00;100914.41;5026543;28;20046;-77
2022/08/01 02:56:34;;;;;;;;;;;;;;;16.65;100.00;100919.59;5025961;28;20015;-77
2022/08/01 02:59:01;;;;;;;;;;;;;;;16.63;100.00;100920.84;5041722;28;19917;-76
2022/08/01 03:01:26;;;;;;;;;;;;;;;16.64;100.00;100928.69;5026562;28;19963;-75
2022/08/01 03:03:51;;;;;;;;;;;;;;;16.67;100.00;100933.72;5042219;28;20287;-75
2022/08/01 03:06:17;;;;;;;;;;;;;;;16.68;100.00;100935.38;5025291;28;19916;-76
2022/08/01 03:08:43;;;;;;;;;;;;;;;16.69;100.00;100928.09;5025162;28;19920;-77
2022/08/01 03:11:11;;;;;;;;;;;;;;;16.68;100.00;100937.25;5022010;28;19913;-76
2022/08/01 03:13:37;;;;;;;;;;;;;;;16.67;100.00;100943.66;5042004;28;20106;-74
2022/08/01 03:16:04;;;;;;;;;;;;;;;16.64;100.00;100944.03;5026987;28;19999;-76
2022/08/01 03:18:30;;;;;;;;;;;;;;;16.70;100.00;100942.44;5026950;28;19924;-77
2022/08/01 03:20:56;;;;;;;;;;;;;;;16.69;100.00;100944.28;5026838;28;20372;-77
2022/08/01 03:23:22;;;;;;;;;;;;;;;16.66;100.00;100944.69;5024134;28;19927;-74
2022/08/01 03:25:49;;;;;;;;;;;;;;;16.66;100.00;100953.59;5026654;28;19909;-77
2022/08/01 03:28:15;;;;;;;;;;;;;;;16.58;100.00;100939.47;5025647;28;19953;-77
2022/08/01 03:30:42;;;;;;;;;;;;;;;16.64;100.00;100946.75;5026627;28;20775;-77
2022/08/01 03:33:08;;;;;;;;;;;;;;;16.56;100.00;100946.91;5027162;28;19924;-77
2022/08/01 03:35:35;;;;;;;;;;;;;;;16.66;100.00;100947.38;5049851;23;19909;-77
2022/08/01 03:38:02;;;;;;;;;;;;;;;16.61;100.00;100947.97;5022373;28;20053;-75
2022/08/01 03:40:41;;;;;;;;;;;;;;;16.61;100.00;100960.63;5025580;28;19913;-78
2022/08/01 03:43:13;;;;;;;;;;;;;;;16.61;100.00;100960.63;5025914;28;19989;-75
2022/08/01 03:45:40;;;;;;;;;;;;;;;16.66;100.00;100963.56;5033387;28;19917;-78
2022/08/01 03:48:09;;;;;;;;;;;;;;;16.65;100.00;100965.44;5018328;28;19909;-77
2022/08/01 03:50:36;;;;;;;;;;;;;;;16.64;100.00;100960.22;5021035;28;19919;-79
2022/08/01 03:53:02;;;;;;;;;;;;;;;16.50;100.00;100953.91;5016351;28;20239;-76
2022/08/01 03:55:29;;;;;;;;;;;;;;;16.50;100.00;100953.06;5024066;28;20413;-77
2022/08/01 03:57:55;;;;;;;;;;;;;;;16.54;100.00;100959.75;5019520;28;20006;-79
2022/08/01 04:00:20;;;;;;;;;;;;;;;16.62;100.00;100967.66;5022239;28;19956;-79
2022/08/01 04:02:46;;;;;;;;;;;;;;;16.58;100.00;100966.41;5007467;28;20366;-78
2022/08/01 04:05:12;;;;;;;;;;;;;;;16.59;100.00;100968.06;5021473;28;19913;-75
2022/08/01 04:07:39;;;;;;;;;;;;;;;16.59;100.00;100965.38;5007643;28;19920;-77
2022/08/01 04:10:04;;;;;;;;;;;;;;;16.61;100.00;100972.22;5021227;28;19920;-78
2022/08/01 04:12:30;;;;;;;;;;;;;;;16.58;100.00;100966.41;5024218;28;20291;-76
2022/08/01 04:14:55;;;;;;;;;;;;;;;16.55;100.00;100969.47;5020983;28;20365;-77
2022/08/01 04:17:20;;;;;;;;;;;;;;;16.50;100.00;100969.25;5024683;28;20450;-79
2022/08/01 04:19:46;;;;;;;;;;;;;;;16.51;100.00;100976.31;5023095;28;19913;-77
2022/08/01 04:22:12;;;;;;;;;;;;;;;16.55;100.00;100977.56;5004733;28;19913;-79
2022/08/01 04:24:39;;;;;;;;;;;;;;;16.57;100.00;100975.50;5023257;28;19925;-78
2022/08/01 04:27:07;;;;;;;;;;;;;;;16.53;100.00;100974.22;5020612;28;19945;-76
2022/08/01 04:29:34;;;;;;;;;;;;;;;16.56;100.00;100973.88;5023994;28;19952;-79
2022/08/01 04:32:00;;;;;;;;;;;;;;;16.51;100.00;100982.53;5021452;28;19963;-78
2022/08/01 04:34:28;;;;;;;;;;;;;;;16.45;100.00;100984.13;5006565;28;19923;-78
2022/08/01 04:36:54;;;;;;;;;;;;;;;16.48;100.00;100990.16;5021857;28;19913;-78
2022/08/01 04:39:21;;;;;;;;;;;;;;;16.51;100.00;100989.78;5023742;28;19948;-78
2022/08/01 04:41:46;;;;;;;;;;;;;;;16.46;100.00;100995.78;5022742;28;19944;-75
2022/08/01 04:44:12;;;;;;;;;;;;;;;16.46;100.00;100991.22;5021337;28;19965;-78
2022/08/01 04:46:38;;;;;;;;;;;;;;;16.53;100.00;100999.34;5006604;28;19921;-78
2022/08/01 04:49:05;;;;;;;;;;;;;;;16.54;100.00;100986.69;5003938;28;19971;-78
2022/08/01 04:51:30;;;;;;;;;;;;;;;16.61;100.00;100987.56;5020314;28;19909;-78
2022/08/01 04:53:58;;;;;;;;;;;;;;;16.58;100.00;100998.75;5021466;28;19923;-77
2022/08/01 04:56:23;;;;;;;;;;;;;;;16.55;100.00;100988.34;5022517;28;19921;-77
2022/08/01 04:59:39;;;;;;;;;;;;;;;16.52;100.00;100983.38;5022622;28;19916;-78
2022/08/01 05:01:34;;;;;;;;;;;;;;;16.60;100.00;100988.59;5019449;28;19971;-79
2022/08/01 05:03:59;;;;;;;;;;;;;;;16.58;100.00;100982.59;5016567;28;19912;-78
2022/08/01 05:06:24;;;;;;;;;;;;;;;16.58;100.00;100982.59;5023004;28;19913;-80
2022/08/01 05:08:49;;;;;;;;;;;;;;;16.58;100.00;100969.94;5000892;28;19910;-77
2022/08/01 05:11:15;;;;;;;;;;;;;;;16.55;100.00;100966.78;5020711;28;19948;-80
2022/08/01 05:13:40;;;;;;;;;;;;;;;16.55;100.00;100961.41;5024448;28;20148;-78
2022/08/01 05:16:07;;;;;;;;;;;;;;;16.55;100.00;100956.88;5019913;28;20417;-80
2022/08/01 05:18:32;;;;;;;;;;;;;;;16.64;100.00;100973.69;5006671;28;19913;-77
2022/08/01 05:20:57;;;;;;;;;;;;;;;16.56;100.00;100963.09;5020420;28;19923;-77
2022/08/01 05:23:23;;;;;;;;;;;;;;;16.55;100.00;100956.00;5022669;28;19921;-79
2022/08/01 05:25:49;;;;;;;;;;;;;;;16.60;100.00;100954.41;5019541;28;19913;-78
2022/08/01 05:28:14;;;;;;;;;;;;;;;16.57;100.00;100948.56;5022406;28;20500;-77
2022/08/01 05:30:40;;;;;;;;;;;;;;;16.48;100.00;100950.56;5022939;28;19985;-79
2022/08/01 05:33:05;;;;;;;;;;;;;;;16.54;100.00;100946.28;5003845;28;20099;-79
2022/08/01 05:35:31;;;;;;;;;;;;;;;16.58;100.00;100944.84;5007537;28;20003;-78
2022/08/01 05:37:56;;;;;;;;;;;;;;;16.64;100.00;100949.44;5014376;28;19913;-75
2022/08/01 05:40:21;;;;;;;;;;;;;;;16.62;100.00;100949.66;5019455;28;19918;-75
2022/08/01 05:42:47;;;;;;;;;;;;;;;16.61;100.00;100939.06;5022070;28;19915;-75
2022/08/01 05:45:12;;;;;;;;;;;;;;;16.80;100.00;100948.34;5004833;28;19928;-76
2022/08/01 05:47:38;;;;;;;;;;;;;;;16.73;100.00;100942.88;5006681;28;19913;-78
2022/08/01 05:50:03;;;;;;;;;;;;;;;16.72;100.00;100932.28;5003625;28;20024;-77
2022/08/01 05:52:28;;;;;;;;;;;;;;;16.76;100.00;100939.75;5027264;28;20000;-76
2022/08/01 05:54:54;;;;;;;;;;;;;;;16.71;100.00;100936.00;5022968;28;20404;-79
2022/08/01 05:57:19;;;;;;;;;;;;;;;16.67;100.00;100927.50;5023540;28;19991;-77
2022/08/01 05:59:44;;;;;;;;;;;;;;;16.75;100.00;100930.03;5022926;28;20330;-77
2022/08/01 06:02:10;;;;;;;;;;;;;;;16.76;100.00;100934.38;5004314;28;19920;-77
2022/08/01 06:04:35;;;;;;;;;;;;;;;16.76;100.00;100931.66;5006573;28;20018;-77
2022/08/01 06:07:00;;;;;;;;;;;;;;;16.77;100.00;100940.63;5004267;28;20127;-77
2022/08/01 06:09:26;;;;;;;;;;;;;;;16.72;100.00;100941.22;5005915;28;19917;-77
2022/08/01 06:11:51;;;;;;;;;;;;;;;16.67;100.00;100941.81;5023310;28;20433;-75
2022/08/01 06:14:16;;;;;;;;;;;;;;;16.72;100.00;100937.69;5019995;28;19917;-75
2022/08/01 06:16:41;;;;;;;;;;;;;;;16.72;100.00;100943.09;5024195;28;19908;-75
2022/08/01 06:19:07;;;;;;;;;;;;;;;16.72;100.00;100943.91;5017687;28;19918;-77
2022/08/01 06:21:32;;;;;;;;;;;;;;;16.78;100.00;100939.56;5006293;28;19908;-77
2022/08/01 06:23:57;;;;;;;;;;;;;;;16.83;100.00;100948.78;5003990;28;19920;-77
2022/08/01 06:26:23;;;;;;;;;;;;;;;16.97;100.00;100948.81;5005449;28;19917;-78
2022/08/01 06:28:48;;;;;;;;;;;;;;;16.93;100.00;100952.94;5005472;28;19917;-78
2022/08/01 06:31:14;;;;;;;;;;;;;;;17.00;100.00;100953.84;5020461;28;20385;-78
2022/08/01 06:33:40;;;;;;;;;;;;;;;16.91;100.00;100946.94;5023101;28;19964;-76
2022/08/01 06:36:05;;;;;;;;;;;;;;;16.90;100.00;100948.78;5019743;28;19925;-78
2022/08/01 06:38:31;;;;;;;;;;;;;;;16.97;100.00;100946.13;5022974;28;19927;-77
2022/08/01 06:40:56;;;;;;;;;;;;;;;17.05;100.00;100943.28;5020207;28;20412;-74
2022/08/01 06:43:21;;;;;;;;;;;;;;;17.08;100.00;100945.56;5022398;28;19987;-75
2022/08/01 06:45:47;;;;;;;;;;;;;;;17.11;100.00;100941.63;5021715;28;19915;-77
2022/08/01 06:48:13;;;;;;;;;;;;;;;17.16;100.00;100944.56;5020443;28;19935;-75
2022/08/01 06:50:38;;;;;;;;;;;;;;;17.18;100.00;100945.19;5004772;28;19968;-77
2022/08/01 06:53:04;;;;;;;;;;;;;;;17.11;100.00;100947.84;5018079;28;19920;-76
2022/08/01 06:55:29;;;;;;;;;;;;;;;17.12;100.00;100954.09;5020608;28;19956;-77
2022/08/01 06:57:55;;;;;;;;;;;;;;;17.16;100.00;100952.66;5020720;28;20377;-76
2022/08/01 07:00:22;;;;;;;;;;;;;;;17.08;100.00;100961.75;5021269;28;19913;-77
2022/08/01 07:02:48;;;;;;;;;;;;;;;17.17;100.00;100960.56;5017511;28;20370;-76
2022/08/01 07:05:13;;;;;;;;;;;;;;;17.08;100.00;100961.75;5021295;28;19920;-77
2022/08/01 07:07:38;;;;;;;;;;;;;;;17.16;100.00;100960.75;5014176;28;20301;-76
2022/08/01 07:10:04;;;;;;;;;;;;;;;17.08;100.00;100967.97;5019277;28;19913;-77
2022/08/01 07:12:29;;;;;;;;;;;;;;;17.13;100.00;100975.47;5015515;28;20059;-76
2022/08/01 07:14:55;;;;;;;;;;;;;;;17.18;100.00;100978.41;5016264;28;19910;-77
2022/08/01 07:17:20;;;;;;;;;;;;;;;17.15;100.00;100970.72;5020788;28;20024;-77
2022/08/01 07:19:46;;;;;;;;;;;;;;;17.23;100.00;100983.19;5004436;28;20018;-76
2022/08/01 07:22:11;;;;;;;;;;;;;;;17.07;100.00;100981.69;5016030;28;19952;-75
2022/08/01 07:24:36;;;;;;;;;;;;;;;17.01;100.00;100987.88;5020498;28;19923;-76
2022/08/01 07:27:02;;;;;;;;;;;;;;;17.06;100.00;100996.19;5020957;28;19920;-75
2022/08/01 07:29:27;;;;;;;;;;;;;;;17.01;100.00;100993.25;5023129;28;20000;-76
2022/08/01 07:31:53;;;;;;;;;;;;;;;17.06;100.00;100997.00;5022676;28;19920;-77
2022/08/01 07:34:18;;;;;;;;;;;;;;;17.02;100.00;100997.59;5022153;28;19921;-77
2022/08/01 07:36:44;;;;;;;;;;;;;;;17.22;100.00;101008.53;5022817;28;19920;-76
2022/08/01 07:39:09;;;;;;;;;;;;;;;17.03;100.00;101005.50;5020222;28;19956;-77
2022/08/01 07:41:34;;;;;;;;;;;;;;;17.12;100.00;101011.59;5022836;28;20373;-76
2022/08/01 07:43:59;;;;;;;;;;;;;;;17.14;100.00;101009.53;5020276;28;19913;-77
2022/08/01 07:46:25;;;;;;;;;;;;;;;17.29;100.00;101015.59;5023362;28;20699;-76
2022/08/01 07:48:50;;;;;;;;;;;;;;;17.42;100.00;101024.78;5005530;28;19924;-76
2022/08/01 07:51:15;;;;;;;;;;;;;;;17.63;100.00;101031.94;5020759;28;19917;-77
2022/08/01 07:53:40;;;;;;;;;;;;;;;17.61;100.00;101024.06;5006145;28;19920;-75
2022/08/01 07:56:06;;;;;;;;;;;;;;;17.60;100.00;101022.38;5019976;28;20004;-75
2022/08/01 07:58:32;;;;;;;;;;;;;;;17.55;100.00;101037.53;5023769;28;19991;-74
2022/08/01 08:00:57;;;;;;;;;;;;;;;17.37;100.00;101022.72;5021466;28;19913;-76
2022/08/01 08:03:22;;;;;;;;;;;;;;;17.42;100.00;101035.59;5021328;28;19999;-77
2022/08/01 08:05:48;;;;;;;;;;;;;;;17.32;100.00;101032.44;5022869;28;19953;-76
2022/08/01 08:08:15;;;;;;;;;;;;;;;17.26;100.00;101034.91;4996692;28;19984;-76
2022/08/01 08:10:41;;;;;;;;;;;;;;;17.29;100.00;101045.28;5011966;28;20270;-76
2022/08/01 08:13:06;;;;;;;;;;;;;;;17.47;100.00;101058.25;5011100;28;19913;-74
2022/08/01 08:15:31;;;;;;;;;;;;;;;17.31;100.00;101064.00;5022862;28;20362;-75
2022/08/01 08:17:56;;;;;;;;;;;;;;;17.02;100.00;101060.50;5021989;28;20043;-77
2022/08/01 08:20:24;;;;;;;;;;;;;;;16.97;100.00;101076.41;5020539;28;20320;-77
2022/08/01 08:22:50;;;;;;;;;;;;;;;16.79;100.00;101076.91;5021394;28;19920;-75
2022/08/01 08:25:15;;;;;;;;;;;;;;;16.79;100.00;101070.69;5021005;28;19921;-76
2022/08/01 08:27:41;;;;;;;;;;;;;;;16.98;100.00;101077.28;5003824;28;19912;-75
2022/08/01 08:30:10;;;;;;;;;;;;;;;17.52;100.00;101079.25;5017025;28;20497;-74
2022/08/01 08:32:36;;;;;;;;;;;;;;;18.06;100.00;101072.22;5020185;28;19916;-74
2022/08/01 08:35:02;;;;;;;;;;;;;;;17.98;100.00;101053.47;5017327;28;19924;-74
2022/08/01 08:37:27;;;;;;;;;;;;;;;18.77;100.00;101059.00;5018778;28;19920;-76
2022/08/01 08:39:52;;;;;;;;;;;;;;;18.79;100.00;101031.75;5002287;28;19913;-76
2022/08/01 08:42:18;;;;;;;;;;;;;;;18.56;100.00;101024.84;5003674;28;19913;-75
2022/08/01 08:44:43;;;;;;;;;;;;;;;19.50;100.00;101011.16;5022954;28;19925;-76
2022/08/01 08:47:10;;;;;;;;;;;;;;;19.94;100.00;100911.94;5019939;28;19913;-76
2022/08/01 08:49:36;;;;;;;;;;;;;;;20.38;100.00;100845.03;5021919;28;19913;-76
2022/08/01 08:52:02;;;;;;;;;;;;;;;19.92;100.00;100765.03;5020221;28;19913;-76
2022/08/01 08:54:29;;;;;;;;;;;;;;;19.75;100.00;100746.63;5021298;28;20477;-77
2022/08/01 08:56:55;;;;;;;;;;;;;;;19.03;100.00;100840.84;5014005;28;19913;-75
2022/08/01 08:59:21;;;;;;;;;;;;;;;18.26;100.00;100867.72;5009259;28;20376;-76
2022/08/01 09:01:46;;;;;;;;;;;;;;;18.22;100.00;100954.81;5019584;28;19913;-74
2022/08/01 09:04:12;;;;;;;;;;;;;;;18.76;100.00;100991.56;5019755;28;20012;-76
2022/08/01 09:06:38;;;;;;;;;;;;;;;19.82;100.00;100966.84;5020559;28;19966;-76
2022/08/01 09:09:04;;;;;;;;;;;;;;;19.75;100.00;100906.44;5019362;28;19940;-75
2022/08/01 09:11:29;;;;;;;;;;;;;;;19.69;100.00;100930.88;5026851;28;20335;-76
2022/08/01 09:14:25;;;;;;;;;;;;;;;19.09;100.00;100920.34;5015423;28;19956;-76
2022/08/01 09:17:03;;;;;;;;;;;;;;;19.29;100.00;100961.69;5016698;28;19928;-74
2022/08/01 09:19:36;;;;;;;;;;;;;;;20.30;100.00;100862.44;5011481;28;20439;-76
2022/08/01 09:22:03;;;;;;;;;;;;;;;21.19;100.00;100829.44;5018563;28;19917;-76
2022/08/01 09:24:29;;;;;;;;;;;;;;;21.52;100.00;100698.63;5021481;28;20050;-76
2022/08/01 09:26:55;;;;;;;;;;;;;;;21.93;100.00;100659.56;5019983;28;20002;-75
2022/08/01 09:29:25;;;;;;;;;;;;;;;21.66;100.00;100587.81;4998146;28;20033;-76
2022/08/01 09:31:51;;;;;;;;;;;;;;;19.99;100.00;100481.28;5014796;28;20031;-75
2022/08/01 09:34:23;;;;;;;;;;;;;;;20.85;100.00;100715.13;5016229;28;19920;-77
2022/08/01 09:36:56;;;;;;;;;;;;;;;21.73;100.00;100571.38;5012674;28;19924;-74
2022/08/01 09:39:33;;;;;;;;;;;;;;;22.33;100.00;100615.25;5015668;28;19964;-77
2022/08/01 09:42:00;;;;;;;;;;;;;;;22.70;100.00;100350.06;5017307;28;19948;-75
2022/08/01 09:44:42;;;;;;;;;;;;;;;22.72;100.00;100298.94;5013726;28;19914;-75
2022/08/01 09:47:07;;;;;;;;;;;;;;;22.68;100.00;100350.31;5014412;28;19942;-75
2022/08/01 09:49:34;;;;;;;;;;;;;;;23.76;100.00;100498.69;5016900;28;19913;-76
2022/08/01 09:52:09;;;;;;;;;;;;;;;23.83;100.00;100338.50;5011983;28;19913;-76
2022/08/01 09:54:34;;;;;;;;;;;;;;;24.62;99.96;100410.53;5012517;28;20386;-76
2022/08/01 09:57:07;;;;;;;;;;;;;;;22.98;97.63;100150.34;5018222;28;19916;-76
2022/08/01 09:59:41;;;;;;;;;;;;;;;23.47;98.39;100312.84;5008141;28;20359;-76
2022/08/01 10:02:08;;;;;;;;;;;;;;;23.14;97.43;100315.50;5012166;28;19925;-76
2022/08/01 10:04:33;;;;;;;;;;;;;;;22.81;95.07;100256.59;5023441;28;19913;-77
2022/08/01 10:07:07;;;;;;;;;;;;;;;23.56;94.07;100398.47;5014792;28;19913;-77
2022/08/01 10:09:34;;;;;;;;;;;;;;;24.59;89.92;100476.56;4997988;28;19939;-77
2022/08/01 10:12:00;;;;;;;;;;;;;;;23.62;79.76;100064.19;4997445;28;20367;-75
2022/08/01 10:14:26;;;;;;;;;;;;;;;23.66;88.64;100348.69;5017298;28;19925;-75
2022/08/01 10:16:53;;;;;;;;;;;;;;;23.93;90.15;100450.38;5017909;28;19920;-77
2022/08/01 10:19:20;;;;;;;;;;;;;;;24.51;87.36;100486.06;5016684;28;20098;-76
2022/08/01 10:21:49;;;;;;;;;;;;;;;24.09;80.94;100257.72;5014193;28;19916;-75
2022/08/01 10:24:15;;;;;;;;;;;;;;;23.96;85.62;100395.31;5015688;28;19921;-76
2022/08/01 10:26:41;;;;;;;;;;;;;;;23.68;79.14;100202.09;5017420;28;20861;-77
2022/08/01 10:29:06;;;;;;;;;;;;;;;24.67;82.89;100495.19;5017109;28;19920;-76
2022/08/01 10:31:32;;;;;;;;;;;;;;;24.28;78.15;100309.94;5014007;28;19913;-75
2022/08/01 10:33:58;;;;;;;;;;;;;;;24.82;72.95;100276.06;5014061;28;19993;-76
2022/08/01 10:36:24;;;;;;;;;;;;;;;24.84;69.41;100184.63;5016702;28;19921;-76
2022/08/01 10:38:49;;;;;;;;;;;;;;;24.29;68.30;100085.16;5015986;28;19919;-76
2022/08/01 10:41:15;;;;;;;;;;;;;;;23.66;66.33;99923.63;5016357;28;19988;-75
2022/08/01 10:43:40;;;;;;;;;;;;;;;23.73;70.47;100148.44;5017374;28;20857;-75
2022/08/01 10:46:06;;;;;;;;;;;;;;;23.69;74.67;100320.91;5016878;28;19913;-75
2022/08/01 10:48:40;;;;;;;;;;;;;;;24.90;73.64;100520.47;5010885;28;20043;-76
2022/08/01 10:51:07;;;;;;;;;;;;;;;24.47;67.28;100203.91;5016463;28;20018;-75
2022/08/01 10:53:32;;;;;;;;;;;;;;;24.67;66.23;100221.44;5015179;28;19920;-76
2022/08/01 10:56:01;;;;;;;;;;;;;;;24.59;68.01;100285.53;5013693;28;19917;-76
2022/08/01 10:58:37;;;;;;;;;;;;;;;23.98;64.92;100057.81;5016969;28;20006;-75
2022/08/01 11:01:12;;;;;;;;;;;;;;;24.26;63.86;100088.44;5017675;28;19920;-75
2022/08/01 11:03:38;;;;;;;;;;;;;;;23.69;74.70;100416.28;5007662;28;19921;-76
2022/08/01 11:06:03;;;;;;;;;;;;;;;24.49;65.11;100222.72;4993857;28;19973;-77
2022/08/01 11:08:30;;;;;;;;;;;;;;;24.27;63.52;100150.06;5018657;28;19917;-76
2022/08/01 11:11:02;;;;;;;;;;;;;;;24.30;60.50;100053.25;5008840;28;20696;-75
2022/08/01 11:13:46;;;;;;;;;;;;;;;24.42;61.61;100152.84;5016669;28;19920;-76
2022/08/01 11:16:24;;;;;;;;;;;;;;;23.82;59.52;99943.56;5015918;28;20356;-75
2022/08/01 11:18:51;;;;;;;;;;;;;;;24.40;62.88;100260.59;5013479;28;20356;-76
2022/08/01 11:21:18;;;;;;;;;;;;;;;25.05;64.52;100457.72;4996720;28;19997;-76
2022/08/01 11:23:48;;;;;;;;;;;;;;;24.98;57.59;100032.00;5016869;28;20409;-76
2022/08/01 11:26:14;;;;;;;;;;;;;;;24.65;59.16;100131.63;5014561;28;19920;-76
2022/08/01 11:28:39;;;;;;;;;;;;;;;24.66;57.45;100035.03;5018087;28;20383;-76
2022/08/01 11:31:08;;;;;;;;;;;;;;;24.90;57.30;100124.56;5013433;28;19913;-76
2022/08/01 11:33:39;;;;;;;;;;;;;;;24.90;58.65;100210.00;5019394;28;19909;-76
2022/08/01 11:36:10;;;;;;;;;;;;;;;25.29;56.45;100146.69;5017441;28;19963;-76
2022/08/01 11:38:41;;;;;;;;;;;;;;;26.27;56.28;100353.28;5014312;28;19975;-75
2022/08/01 11:41:12;;;;;;;;;;;;;;;25.60;51.94;99885.09;5016052;28;19917;-76
2022/08/01 11:43:56;;;;;;;;;;;;;;;24.58;52.97;99801.75;5013266;28;19918;-76
2022/08/01 11:46:40;;;;;;;;;;;;;;;24.79;53.46;99927.19;5015583;28;19917;-77
2022/08/01 11:49:24;;;;;;;;;;;;;;;24.68;54.52;99991.06;5016245;28;19917;-76
2022/08/01 11:51:56;;;;;;;;;;;;;;;25.49;54.24;100173.16;5012998;28;19913;-76
2022/08/01 11:54:25;;;;;;;;;;;;;;;25.35;51.31;99934.41;5016955;28;19924;-76
2022/08/01 11:56:53;;;;;;;;;;;;;;;25.88;52.54;100156.97;5000189;28;19909;-77
2022/08/01 11:59:19;;;;;;;;;;;;;;;26.46;53.24;100311.63;5014174;28;19917;-75
2022/08/01 12:01:44;;;;;;;;;;;;;;;27.23;51.33;100292.97;5012763;28;20051;-76
2022/08/01 12:04:09;;;;;;;;;;;;;;;25.60;52.98;100045.53;5018453;28;19921;-77
2022/08/01 12:06:35;;;;;;;;;;;;;;;25.89;51.71;99977.31;5015805;28;19908;-76
2022/08/01 12:09:16;;;;;;;;;;;;;;;25.97;53.93;100211.94;5015651;28;19913;-75
2022/08/01 12:11:42;;;;;;;;;;;;;;;26.52;51.86;100192.81;5007739;28;20000;-75
2022/08/01 12:14:07;;;;;;;;;;;;;;;25.97;53.26;100190.03;5017080;28;20008;-76
2022/08/01 12:16:33;;;;;;;;;;;;;;;26.24;53.80;100271.72;5021069;28;20275;-76
2022/08/01 12:18:59;;;;;;;;;;;;;;;25.49;49.96;99793.34;5003498;28;19955;-75
2022/08/01 12:21:24;;;;;;;;;;;;;;;26.47;49.03;100012.22;5018117;28;19965;-75
2022/08/01 12:24:02;;;;;;;;;;;;;;;26.54;47.03;99856.72;5016528;28;19935;-75
2022/08/01 12:26:43;;;;;;;;;;;;;;;26.14;48.05;99846.97;5019512;28;19996;-76
2022/08/01 12:29:08;;;;;;;;;;;;;;;26.01;48.00;99829.31;5002454;28;19921;-76